createdAt,value
2018-03-18T00:02:42.853Z,100457.22
2018-03-18T00:05:11.689Z,100441.86
2018-03-18T00:07:39.280Z,100462.46
2018-03-18T00:10:06.839Z,100453.04
2018-03-18T00:12:34.367Z,100458.30
2018-03-18T00:15:01.902Z,100456.16
2018-03-18T00:17:29.473Z,100462.13
2018-03-18T00:19:57.029Z,100467.52
2018-03-18T00:22:24.592Z,100457.47
2018-03-18T00:24:52.111Z,100471.09
2018-03-18T00:27:19.656Z,100469.75
2018-03-18T00:29:47.206Z,100465.40
2018-03-18T00:32:14.732Z,100482.34
2018-03-18T00:34:43.424Z,100473.41
2018-03-18T00:37:10.983Z,100477.41
2018-03-18T00:39:38.582Z,100478.06
2018-03-18T00:42:06.134Z,100491.55
2018-03-18T00:44:33.672Z,100482.23
2018-03-18T00:47:01.191Z,100478.80
2018-03-18T00:49:28.727Z,100485.48
2018-03-18T00:52:01.073Z,100472.00
2018-03-18T00:54:28.593Z,100482.75
2018-03-18T00:56:56.141Z,100486.23
2018-03-18T00:59:23.679Z,100484.80
2018-03-18T01:01:51.230Z,100481.31
2018-03-18T01:04:18.802Z,100482.66
2018-03-18T01:06:46.352Z,100481.22
2018-03-18T01:09:13.860Z,100489.39
2018-03-18T01:11:41.371Z,100481.30
2018-03-18T01:14:08.900Z,100483.86
2018-03-18T01:16:36.463Z,100485.38
2018-03-18T01:19:04.002Z,100489.02
2018-03-18T01:21:31.542Z,100479.84
2018-03-18T01:23:59.065Z,100484.87
2018-03-18T01:26:26.593Z,100483.97
2018-03-18T01:28:54.191Z,100478.50
2018-03-18T01:31:21.752Z,100487.19
2018-03-18T01:33:49.288Z,100482.83
2018-03-18T01:36:16.879Z,100480.33
2018-03-18T01:38:44.531Z,100479.59
2018-03-18T01:41:12.078Z,100481.34
2018-03-18T01:43:40.087Z,100486.17
2018-03-18T01:46:07.642Z,100474.27
2018-03-18T01:48:35.145Z,100470.27
2018-03-18T01:51:02.687Z,100480.75
2018-03-18T01:53:30.244Z,100470.68
2018-03-18T01:55:57.753Z,100477.50
2018-03-18T01:58:25.272Z,100481.08
2018-03-18T02:00:52.780Z,100470.92
2018-03-18T02:03:20.357Z,100461.81
2018-03-18T02:05:47.921Z,100468.25
2018-03-18T02:08:15.475Z,100476.74
2018-03-18T02:10:43.004Z,100475.33
2018-03-18T02:13:10.694Z,100468.30
2018-03-18T02:15:38.258Z,100478.06
2018-03-18T02:18:05.820Z,100462.52
2018-03-18T02:20:33.393Z,100467.00
2018-03-18T02:23:00.933Z,100466.67
2018-03-18T02:25:28.437Z,100468.14
2018-03-18T02:27:56.019Z,100470.83
2018-03-18T02:30:23.582Z,100443.59
2018-03-18T02:32:51.138Z,100470.33
2018-03-18T02:35:18.662Z,100476.58
2018-03-18T02:37:46.222Z,100471.17
2018-03-18T02:40:13.730Z,100463.14
2018-03-18T02:42:41.277Z,100478.06
2018-03-18T02:45:08.823Z,100468.80
2018-03-18T02:47:36.412Z,100473.63
2018-03-18T02:50:04.019Z,100471.53
2018-03-18T02:52:31.567Z,100484.03
2018-03-18T02:54:59.136Z,100467.05
2018-03-18T02:57:26.678Z,100468.80
2018-03-18T02:59:54.247Z,100467.94
2018-03-18T03:02:21.748Z,100465.61
2018-03-18T03:04:49.310Z,100471.95
2018-03-18T03:07:16.849Z,100469.19
2018-03-18T03:09:44.406Z,100470.31
2018-03-18T03:12:11.973Z,100467.89
2018-03-18T03:14:39.482Z,100473.84
2018-03-18T03:17:07.063Z,100466.45
2018-03-18T03:19:34.560Z,100475.80
2018-03-18T03:22:02.191Z,100477.42
2018-03-18T03:24:29.734Z,100477.55
2018-03-18T03:26:57.234Z,100458.42
2018-03-18T03:29:24.811Z,100483.83
2018-03-18T03:31:52.341Z,100485.19
2018-03-18T03:34:19.852Z,100471.22
2018-03-18T03:36:47.353Z,100478.38
2018-03-18T03:39:14.947Z,100481.55
2018-03-18T03:41:42.473Z,100478.70
2018-03-18T03:44:09.988Z,100483.25
2018-03-18T03:46:37.490Z,100483.63
2018-03-18T03:49:05.015Z,100477.20
2018-03-18T03:51:32.557Z,100486.16
2018-03-18T03:54:00.073Z,100482.16
2018-03-18T03:56:27.610Z,100481.33
2018-03-18T03:58:55.108Z,100483.78
2018-03-18T04:01:22.688Z,100489.45
2018-03-18T04:03:50.217Z,100494.52
2018-03-18T04:06:17.745Z,100481.95
2018-03-18T04:08:45.284Z,100483.45
2018-03-18T04:11:12.841Z,100489.14
2018-03-18T04:13:40.365Z,100486.65
2018-03-18T04:16:07.883Z,100490.03
2018-03-18T04:18:35.399Z,100486.67
2018-03-18T04:21:02.901Z,100492.71
2018-03-18T04:23:30.440Z,100495.11
2018-03-18T04:25:57.964Z,100489.83
2018-03-18T04:28:25.494Z,100487.87
2018-03-18T04:30:53.045Z,100492.34
2018-03-18T04:33:20.563Z,100486.62
2018-03-18T04:35:48.115Z,100492.84
2018-03-18T04:38:15.665Z,100502.93
2018-03-18T04:40:43.168Z,100493.89
2018-03-18T04:43:10.688Z,100499.52
2018-03-18T04:45:38.204Z,100500.58
2018-03-18T04:48:05.711Z,100502.38
2018-03-18T04:50:33.299Z,100496.75
2018-03-18T04:53:00.816Z,100502.48
2018-03-18T04:55:28.370Z,100498.35
2018-03-18T04:57:55.861Z,100509.31
2018-03-18T05:00:23.410Z,100504.98
2018-03-18T05:02:50.914Z,100505.73
2018-03-18T05:05:18.409Z,100515.07
2018-03-18T05:07:45.920Z,100518.77
2018-03-18T05:10:13.463Z,100525.75
2018-03-18T05:12:41.037Z,100519.19
2018-03-18T05:15:08.557Z,100515.77
2018-03-18T05:17:36.128Z,100513.67
2018-03-18T05:20:03.660Z,100516.53
2018-03-18T05:22:31.165Z,100516.48
2018-03-18T05:24:58.767Z,100504.88
2018-03-18T05:27:26.282Z,100514.04
2018-03-18T05:29:53.802Z,100515.61
2018-03-18T05:32:21.347Z,100525.34
2018-03-18T05:34:48.925Z,100526.59
2018-03-18T05:37:16.458Z,100529.41
2018-03-18T05:39:44.007Z,100528.72
2018-03-18T05:42:11.532Z,100542.63
2018-03-18T05:44:39.049Z,100535.54
2018-03-18T05:47:06.591Z,100526.73
2018-03-18T05:49:34.144Z,100535.86
2018-03-18T05:52:01.640Z,100545.41
2018-03-18T05:54:29.138Z,100546.98
2018-03-18T05:56:56.682Z,100545.73
2018-03-18T05:59:24.228Z,100546.55
2018-03-18T06:01:51.760Z,100555.05
2018-03-18T06:04:19.315Z,100554.55
2018-03-18T06:06:46.855Z,100555.47
2018-03-18T06:09:14.382Z,100564.55
2018-03-18T06:11:41.884Z,100560.67
2018-03-18T06:14:10.272Z,100556.82
2018-03-18T06:16:37.782Z,100566.06
2018-03-18T06:19:05.308Z,100580.08
2018-03-18T06:21:32.867Z,100561.70
2018-03-18T06:24:00.394Z,100565.08
2018-03-18T06:26:27.974Z,100565.82
2018-03-18T06:28:55.510Z,100591.05
2018-03-18T06:31:23.055Z,100581.94
2018-03-18T06:33:50.613Z,100599.92
2018-03-18T06:36:18.143Z,100594.91
2018-03-18T06:38:46.081Z,100591.06
2018-03-18T06:41:13.642Z,100596.69
2018-03-18T06:43:41.471Z,100612.09
2018-03-18T06:46:11.408Z,100606.19
2018-03-18T06:48:38.969Z,100593.51
2018-03-18T06:51:07.551Z,100613.91
2018-03-18T06:53:35.036Z,100609.44
2018-03-18T06:56:02.562Z,100613.46
2018-03-18T06:58:30.057Z,100606.96
2018-03-18T07:00:58.760Z,100611.57
2018-03-18T07:03:26.279Z,100618.73
2018-03-18T07:05:54.104Z,100615.05
2018-03-18T07:08:21.657Z,100632.52
2018-03-18T07:10:49.162Z,100627.44
2018-03-18T07:13:16.696Z,100621.64
2018-03-18T07:15:46.672Z,100620.14
2018-03-18T07:18:14.225Z,100615.50
2018-03-18T07:20:41.741Z,100619.07
2018-03-18T07:23:09.285Z,100636.47
2018-03-18T07:25:36.896Z,100636.09
2018-03-18T07:28:04.396Z,100642.12
2018-03-18T07:30:31.988Z,100646.83
2018-03-18T07:32:59.577Z,100631.16
2018-03-18T07:35:27.131Z,100651.12
2018-03-18T07:37:54.650Z,100657.16
2018-03-18T07:40:22.246Z,100658.75
2018-03-18T07:42:49.839Z,100646.44
2018-03-18T07:45:17.374Z,100649.97
2018-03-18T07:47:45.015Z,100659.24
2018-03-18T07:50:12.588Z,100667.17
2018-03-18T07:52:40.211Z,100652.06
2018-03-18T07:55:07.737Z,100646.06
2018-03-18T07:57:35.386Z,100655.86
2018-03-18T08:00:02.958Z,100648.67
2018-03-18T08:02:30.528Z,100675.25
2018-03-18T08:04:58.299Z,100659.95
2018-03-18T08:07:26.052Z,100664.91
2018-03-18T08:09:53.686Z,100678.38
2018-03-18T08:12:21.883Z,100673.98
2018-03-18T08:14:49.442Z,100667.87
2018-03-18T08:17:16.967Z,100688.00
2018-03-18T08:19:45.596Z,100649.66
2018-03-18T08:22:13.192Z,100670.64
2018-03-18T08:24:40.714Z,100688.21
2018-03-18T08:27:08.295Z,100681.47
2018-03-18T08:29:35.875Z,100681.92
2018-03-18T08:32:03.404Z,100687.13
2018-03-18T08:34:30.904Z,100698.55
2018-03-18T08:36:58.418Z,100679.30
2018-03-18T08:39:25.966Z,100677.80
2018-03-18T08:41:53.616Z,100698.34
2018-03-18T08:44:22.426Z,100697.44
2018-03-18T08:46:51.499Z,100700.70
2018-03-18T08:49:19.510Z,100704.24
2018-03-18T08:51:48.101Z,100690.48
2018-03-18T08:54:16.534Z,100717.00
2018-03-18T08:56:44.913Z,100703.68
2018-03-18T08:59:12.436Z,100697.94
2018-03-18T09:01:40.026Z,100688.45
2018-03-18T09:04:07.527Z,100693.94
2018-03-18T09:06:35.643Z,100706.47
2018-03-18T09:09:03.147Z,100714.25
2018-03-18T09:11:30.707Z,100703.18
2018-03-18T09:13:58.247Z,100717.00
2018-03-18T09:16:25.805Z,100696.30
2018-03-18T09:18:56.412Z,100704.05
2018-03-18T09:21:23.925Z,100700.77
2018-03-18T09:23:51.482Z,100699.31
2018-03-18T09:26:19.196Z,100703.91
2018-03-18T09:28:46.722Z,100713.36
2018-03-18T09:31:15.195Z,100700.77
2018-03-18T09:33:42.955Z,100707.91
2018-03-18T09:36:10.501Z,100713.27
2018-03-18T09:38:38.062Z,100715.97
2018-03-18T09:41:05.587Z,100701.92
2018-03-18T09:43:33.292Z,100703.16
2018-03-18T09:46:00.951Z,100713.39
2018-03-18T09:48:28.515Z,100699.82
2018-03-18T09:50:58.092Z,100705.16
2018-03-18T09:53:26.124Z,100709.14
2018-03-18T09:55:53.849Z,100718.20
2018-03-18T09:58:22.334Z,100710.20
2018-03-18T10:00:52.688Z,100712.88
2018-03-18T10:03:20.195Z,100706.02
2018-03-18T10:05:47.727Z,100710.69
2018-03-18T10:08:15.366Z,100683.95
2018-03-18T10:10:44.336Z,100708.63
2018-03-18T10:13:11.859Z,100728.34
2018-03-18T10:15:40.245Z,100689.74
2018-03-18T10:18:07.815Z,100697.18
2018-03-18T10:20:35.328Z,100699.58
2018-03-18T10:23:03.077Z,100727.20
2018-03-18T10:25:30.626Z,100708.01
2018-03-18T10:27:58.132Z,100693.57
2018-03-18T10:30:25.654Z,100694.72
2018-03-18T10:32:53.209Z,100705.61
2018-03-18T10:35:20.700Z,100709.27
2018-03-18T10:37:48.259Z,100722.40
2018-03-18T10:40:16.112Z,100708.95
2018-03-18T10:42:43.746Z,100709.73
2018-03-18T10:45:11.279Z,100702.66
2018-03-18T10:47:40.669Z,100696.45
2018-03-18T10:50:08.492Z,100692.30
2018-03-18T10:52:36.299Z,100694.20
2018-03-18T10:55:03.873Z,100704.03
2018-03-18T10:57:31.592Z,100713.38
2018-03-18T10:59:59.222Z,100715.50
2018-03-18T11:02:26.763Z,100693.64
2018-03-18T11:04:55.075Z,100694.21
2018-03-18T11:07:22.626Z,100712.49
2018-03-18T11:09:51.217Z,100702.68
2018-03-18T11:12:18.725Z,100703.41
2018-03-18T11:14:46.233Z,100700.73
2018-03-18T11:17:13.767Z,100695.77
2018-03-18T11:19:41.284Z,100693.05
2018-03-18T11:22:09.140Z,100705.18
2018-03-18T11:24:37.207Z,100705.34
2018-03-18T11:27:04.726Z,100696.05
2018-03-18T11:29:32.218Z,100698.23
2018-03-18T11:31:59.726Z,100691.59
2018-03-18T11:34:27.245Z,100693.12
2018-03-18T11:36:54.886Z,100681.91
2018-03-18T11:39:22.422Z,100697.13
2018-03-18T11:41:49.934Z,100687.98
2018-03-18T11:44:17.450Z,100693.34
2018-03-18T11:46:44.967Z,100685.72
2018-03-18T11:49:12.488Z,100690.34
2018-03-18T11:51:40.824Z,100697.87
2018-03-18T11:54:08.387Z,100682.24
2018-03-18T11:56:35.979Z,100692.09
2018-03-18T11:59:03.582Z,100689.44
2018-03-18T12:01:31.120Z,100709.61
2018-03-18T12:03:58.621Z,100690.69
2018-03-18T12:06:26.214Z,100667.44
2018-03-18T12:09:03.673Z,100683.77
2018-03-18T12:11:31.196Z,100687.61
2018-03-18T12:13:58.729Z,100676.92
2018-03-18T12:16:26.229Z,100685.31
2018-03-18T12:18:53.786Z,100681.81
2018-03-18T12:21:21.308Z,100681.60
2018-03-18T12:23:48.876Z,100667.44
2018-03-18T12:26:16.385Z,100658.49
2018-03-18T12:28:43.916Z,100654.61
2018-03-18T12:31:11.437Z,100670.55
2018-03-18T12:33:38.948Z,100672.31
2018-03-18T12:36:06.462Z,100663.86
2018-03-18T12:38:34.049Z,100657.26
2018-03-18T12:41:01.573Z,100655.62
2018-03-18T12:43:30.126Z,100652.36
2018-03-18T12:45:57.665Z,100680.48
2018-03-18T12:48:25.212Z,100658.59
2018-03-18T12:50:52.818Z,100659.30
2018-03-18T12:53:20.344Z,100643.38
2018-03-18T12:55:47.859Z,100674.26
2018-03-18T12:58:15.392Z,100647.11
2018-03-18T13:00:42.964Z,100645.52
2018-03-18T13:03:10.492Z,100644.59
2018-03-18T13:05:38.001Z,100642.52
2018-03-18T13:08:05.536Z,100641.73
2018-03-18T13:10:33.147Z,100635.80
2018-03-18T13:13:01.172Z,100634.73
2018-03-18T13:15:28.715Z,100635.87
2018-03-18T13:17:56.215Z,100638.13
2018-03-18T13:20:23.747Z,100622.14
2018-03-18T13:22:51.249Z,100633.66
2018-03-18T13:25:18.831Z,100630.59
2018-03-18T13:27:46.320Z,100620.88
2018-03-18T13:30:13.848Z,100623.84
2018-03-18T13:32:43.737Z,100615.86
2018-03-18T13:35:11.307Z,100619.58
2018-03-18T13:37:39.147Z,100607.65
2018-03-18T13:40:06.695Z,100617.47
2018-03-18T13:42:34.256Z,100608.67
2018-03-18T13:45:02.208Z,100603.39
2018-03-18T13:47:29.728Z,100576.33
2018-03-18T13:49:58.078Z,100598.58
2018-03-18T13:52:26.343Z,100583.42
2018-03-18T13:54:53.840Z,100606.14
2018-03-18T13:57:21.465Z,100596.16
2018-03-18T13:59:49.007Z,100591.68
2018-03-18T14:02:16.607Z,100604.02
2018-03-18T14:04:44.181Z,100592.44
2018-03-18T14:07:11.891Z,100594.89
2018-03-18T14:09:41.225Z,100600.25
2018-03-18T14:12:11.525Z,100587.34
2018-03-18T14:14:39.097Z,100593.41
2018-03-18T14:17:08.439Z,100585.94
2018-03-18T14:19:36.497Z,100583.63
2018-03-18T14:22:04.017Z,100585.31
2018-03-18T14:24:31.576Z,100573.77
2018-03-18T14:26:59.103Z,100577.45
2018-03-18T14:29:26.711Z,100566.36
2018-03-18T14:31:54.642Z,100568.16
2018-03-18T14:34:22.157Z,100579.02
2018-03-18T14:36:49.896Z,100578.70
2018-03-18T14:39:17.434Z,100564.47
2018-03-18T14:41:45.273Z,100569.09
2018-03-18T14:44:12.824Z,100555.14
2018-03-18T14:46:40.365Z,100563.08
2018-03-18T14:49:10.739Z,100550.98
2018-03-18T14:51:38.253Z,100551.67
2018-03-18T14:54:05.776Z,100557.23
2018-03-18T14:56:33.417Z,100559.66
2018-03-18T14:59:00.955Z,100560.91
2018-03-18T15:01:29.162Z,100552.73
2018-03-18T15:03:56.660Z,100550.05
2018-03-18T15:06:24.270Z,100547.57
2018-03-18T15:08:51.809Z,100555.30
2018-03-18T15:11:20.181Z,100539.72
2018-03-18T15:13:47.696Z,100554.30
2018-03-18T15:16:15.209Z,100544.12
2018-03-18T15:18:42.709Z,100541.59
2018-03-18T15:21:10.241Z,100533.36
2018-03-18T15:23:37.858Z,100548.27
2018-03-18T15:26:06.111Z,100550.05
2018-03-18T15:28:33.956Z,100546.63
2018-03-18T15:31:01.569Z,100541.91
2018-03-18T15:33:31.926Z,100547.22
2018-03-18T15:36:01.133Z,100531.26
2018-03-18T15:38:29.655Z,100538.81
2018-03-18T15:40:59.564Z,100531.09
2018-03-18T15:43:27.264Z,100541.01
2018-03-18T15:45:55.843Z,100536.92
2018-03-18T15:48:23.532Z,100540.02
2018-03-18T15:50:51.941Z,100533.50
2018-03-18T15:53:19.526Z,100539.44
2018-03-18T15:55:50.315Z,100549.86
2018-03-18T15:58:17.963Z,100534.70
2018-03-18T16:00:45.444Z,100558.62
2018-03-18T16:03:12.944Z,100545.81
2018-03-18T16:05:40.447Z,100540.57
2018-03-18T16:08:07.953Z,100539.57
2018-03-18T16:10:35.461Z,100545.63
2018-03-18T16:13:02.983Z,100547.12
2018-03-18T16:15:30.479Z,100546.03
2018-03-18T16:17:58.130Z,100542.64
2018-03-18T16:20:25.734Z,100542.23
2018-03-18T16:22:53.265Z,100545.63
2018-03-18T16:25:21.430Z,100544.39
2018-03-18T16:27:49.108Z,100549.24
2018-03-18T16:30:28.313Z,100550.25
2018-03-18T16:32:55.998Z,100553.19
2018-03-18T16:35:23.514Z,100552.49
2018-03-18T16:37:51.017Z,100558.36
2018-03-18T16:40:18.542Z,100554.94
2018-03-18T16:42:46.302Z,100557.70
2018-03-18T16:45:13.834Z,100553.08
2018-03-18T16:47:41.363Z,100549.61
2018-03-18T16:50:08.907Z,100557.16
2018-03-18T16:52:36.963Z,100551.29
2018-03-18T16:55:04.463Z,100546.14
2018-03-18T16:57:31.983Z,100556.20
2018-03-18T16:59:59.488Z,100567.11
2018-03-18T17:02:26.996Z,100563.20
2018-03-18T17:04:54.683Z,100565.65
2018-03-18T17:07:22.240Z,100566.06
2018-03-18T17:09:49.855Z,100569.55
2018-03-18T17:12:17.493Z,100568.65
2018-03-18T17:14:45.001Z,100580.25
2018-03-18T17:17:12.517Z,100579.84
2018-03-18T17:19:40.084Z,100583.60
2018-03-18T17:22:07.589Z,100589.87
2018-03-18T17:24:35.128Z,100585.93
2018-03-18T17:27:02.664Z,100595.03
2018-03-18T17:29:30.424Z,100596.81
2018-03-18T17:31:57.964Z,100594.72
2018-03-18T17:34:25.531Z,100597.60
2018-03-18T17:36:53.031Z,100595.59
2018-03-18T17:39:20.591Z,100600.63
2018-03-18T17:41:48.131Z,100602.23
2018-03-18T17:44:28.374Z,100606.85
2018-03-18T17:47:07.721Z,100610.91
2018-03-18T17:49:47.096Z,100617.17
2018-03-18T17:52:26.482Z,100619.14
2018-03-18T17:55:05.763Z,100619.28
2018-03-18T17:57:33.293Z,100626.20
2018-03-18T18:00:00.793Z,100626.13
2018-03-18T18:02:28.351Z,100634.02
2018-03-18T18:04:55.985Z,100634.31
2018-03-18T18:07:23.554Z,100634.30
2018-03-18T18:09:51.085Z,100645.12
2018-03-18T18:12:18.592Z,100637.09
2018-03-18T18:14:46.215Z,100640.25
2018-03-18T18:17:13.752Z,100635.13
2018-03-18T18:19:41.265Z,100642.53
2018-03-18T18:22:08.796Z,100642.70
2018-03-18T18:24:36.333Z,100640.95
2018-03-18T18:27:03.841Z,100643.31
2018-03-18T18:29:31.374Z,100647.78
2018-03-18T18:31:58.906Z,100651.47
2018-03-18T18:34:26.445Z,100654.75
2018-03-18T18:36:53.947Z,100654.88
2018-03-18T18:39:21.618Z,100656.41
2018-03-18T18:41:49.179Z,100656.41
2018-03-18T18:44:16.708Z,100662.98
2018-03-18T18:46:44.828Z,100665.77
2018-03-18T18:49:12.416Z,100656.47
2018-03-18T18:51:40.063Z,100661.38
2018-03-18T18:54:07.655Z,100667.28
2018-03-18T18:56:35.431Z,100668.05
2018-03-18T18:59:02.994Z,100670.41
2018-03-18T19:01:30.635Z,100673.33
2018-03-18T19:04:05.365Z,100678.38
2018-03-18T19:06:32.984Z,100675.10
2018-03-18T19:09:00.737Z,100681.13
2018-03-18T19:11:28.287Z,100678.06
2018-03-18T19:13:55.807Z,100680.86
2018-03-18T19:16:23.455Z,100678.84
2018-03-18T19:18:51.123Z,100682.52
2018-03-18T19:21:20.193Z,100681.19
2018-03-18T19:23:47.747Z,100683.56
2018-03-18T19:26:15.298Z,100681.66
2018-03-18T19:28:44.064Z,100689.28
2018-03-18T19:31:11.671Z,100692.88
2018-03-18T19:33:39.257Z,100691.19
2018-03-18T19:36:06.843Z,100691.97
2018-03-18T19:38:34.428Z,100688.52
2018-03-18T19:41:02.000Z,100693.20
2018-03-18T19:43:31.071Z,100702.27
2018-03-18T19:45:58.696Z,100699.77
2018-03-18T19:48:27.177Z,100701.55
2018-03-18T19:50:54.771Z,100693.95
2018-03-18T19:53:22.408Z,100693.91
2018-03-18T19:55:50.005Z,100703.70
2018-03-18T19:58:17.647Z,100700.89
2018-03-18T20:00:45.252Z,100701.98
2018-03-18T20:03:12.822Z,100698.13
2018-03-18T20:05:40.482Z,100703.64
2018-03-18T20:08:08.132Z,100704.48
2018-03-18T20:10:35.815Z,100698.91
2018-03-18T20:13:03.466Z,100706.91
2018-03-18T20:15:30.982Z,100698.48
2018-03-18T20:17:58.651Z,100704.09
2018-03-18T20:20:26.547Z,100705.13
2018-03-18T20:22:54.107Z,100699.73
2018-03-18T20:25:21.690Z,100706.78
2018-03-18T20:27:50.248Z,100710.14
2018-03-18T20:30:18.136Z,100712.05
2018-03-18T20:32:46.133Z,100705.72
2018-03-18T20:35:13.855Z,100706.55
2018-03-18T20:37:42.316Z,100701.95
2018-03-18T20:40:09.817Z,100705.70
2018-03-18T20:42:37.713Z,100706.38
2018-03-18T20:45:05.566Z,100707.05
2018-03-18T20:47:34.329Z,100704.97
2018-03-18T20:50:09.163Z,100709.55
2018-03-18T20:52:37.708Z,100716.08
2018-03-18T20:55:06.615Z,100714.23
2018-03-18T20:57:35.334Z,100714.67
2018-03-18T21:00:05.587Z,100714.91
2018-03-18T21:02:35.713Z,100713.00
2018-03-18T21:05:09.946Z,100711.41
2018-03-18T21:07:38.344Z,100709.97
2018-03-18T21:10:07.133Z,100709.14
2018-03-18T21:12:36.862Z,100701.60
2018-03-18T21:15:05.625Z,100701.27
2018-03-18T21:17:35.491Z,100704.47
2018-03-18T21:20:04.135Z,100704.13
2018-03-18T21:22:32.078Z,100707.38
2018-03-18T21:25:00.561Z,100714.40
2018-03-18T21:27:28.446Z,100705.30
2018-03-18T21:30:01.347Z,100705.78
2018-03-18T21:32:30.846Z,100710.39
2018-03-18T21:35:01.455Z,100710.41
2018-03-18T21:37:31.081Z,100703.19
2018-03-18T21:39:59.849Z,100702.36
2018-03-18T21:42:29.165Z,100699.27
2018-03-18T21:44:57.730Z,100697.69
2018-03-18T21:47:26.410Z,100701.35
2018-03-18T21:49:53.989Z,100703.50
2018-03-18T21:52:21.522Z,100694.44
2018-03-18T21:54:50.594Z,100703.18
2018-03-18T21:57:18.865Z,100706.27
2018-03-18T21:59:46.442Z,100707.94
2018-03-18T22:02:16.778Z,100700.00
2018-03-18T22:04:45.189Z,100706.66
2018-03-18T22:07:35.563Z,100698.97
2018-03-18T22:10:03.225Z,100699.48
2018-03-18T22:12:30.803Z,100700.92
2018-03-18T22:14:58.352Z,100698.42
2018-03-18T22:17:26.349Z,100701.80
2018-03-18T22:19:53.868Z,100700.39
2018-03-18T22:22:21.558Z,100705.84
2018-03-18T22:24:49.097Z,100703.58
2018-03-18T22:27:17.764Z,100701.50
2018-03-18T22:29:45.417Z,100707.97
2018-03-18T22:32:12.925Z,100708.40
2018-03-18T22:34:40.481Z,100710.41
2018-03-18T22:37:08.017Z,100709.56
2018-03-18T22:39:35.634Z,100706.02
2018-03-18T22:42:03.238Z,100702.52
2018-03-18T22:44:30.829Z,100704.63
2018-03-18T22:46:58.341Z,100709.38
2018-03-18T22:49:25.971Z,100706.86
2018-03-18T22:51:53.564Z,100704.22
2018-03-18T22:54:21.109Z,100709.44
2018-03-18T22:56:48.619Z,100705.83
2018-03-18T22:59:16.173Z,100699.78
2018-03-18T23:01:43.687Z,100704.50
2018-03-18T23:04:11.253Z,100708.97
2018-03-18T23:06:38.835Z,100709.89
2018-03-18T23:09:06.358Z,100704.19
2018-03-18T23:11:33.918Z,100702.06
2018-03-18T23:14:01.492Z,100695.38
2018-03-18T23:16:29.034Z,100704.38
2018-03-18T23:18:56.572Z,100703.97
2018-03-18T23:21:24.124Z,100705.67
2018-03-18T23:23:51.617Z,100702.63
2018-03-18T23:26:19.133Z,100695.77
2018-03-18T23:28:46.651Z,100696.17
2018-03-18T23:31:14.226Z,100698.50
2018-03-18T23:33:41.735Z,100696.09
2018-03-18T23:36:09.270Z,100696.48
2018-03-18T23:38:36.808Z,100695.63
2018-03-18T23:41:04.409Z,100699.61
2018-03-18T23:43:31.905Z,100699.25
2018-03-18T23:45:59.449Z,100705.62
2018-03-18T23:48:26.970Z,100703.82
2018-03-18T23:50:54.483Z,100696.72
2018-03-18T23:53:21.989Z,100692.47
2018-03-18T23:55:49.488Z,100698.83
2018-03-18T23:58:17.033Z,100696.88
